Time;durP1;ratioP1;P1;durP2;ratioP2;P2;SDS_P1;SDS_P2;PMS_P1;PMS_P2;Temp;Humidity;BMP_temperature;BMP_pressure;BME280_temperature;BME280_humidity;BME280_pressure;Samples;Min_cycle;Max_cycle;Signal;HPM_P1;HPM_P2
2022/10/26 00:01:24;;;;;;;;;;;;;;;16.03;60.43;95509.09;4930334;28;20631;-77
2022/10/26 00:03:49;;;;;;;;;;;;;;;16.03;60.05;95512.56;4930280;28;20066;-78
2022/10/26 00:06:16;;;;;;;;;;;;;;;16.04;60.07;95502.59;4930734;28;20364;-77
2022/10/26 00:08:41;;;;;;;;;;;;;;;16.03;59.90;95507.19;4929422;28;20098;-79
2022/10/26 00:11:07;;;;;;;;;;;;;;;15.99;60.16;95500.13;4929819;28;20122;-77
2022/10/26 00:13:33;;;;;;;;;;;;;;;16.03;60.00;95504.50;4929138;28;20471;-78
2022/10/26 00:15:59;;;;;;;;;;;;;;;16.07;60.17;95507.28;4930430;28;20017;-78
2022/10/26 00:18:24;;;;;;;;;;;;;;;16.08;60.18;95498.16;4945246;28;20019;-78
2022/10/26 00:20:49;;;;;;;;;;;;;;;16.03;60.23;95490.31;4929896;28;20392;-78
2022/10/26 00:23:15;;;;;;;;;;;;;;;16.02;59.98;95489.53;4929148;28;20011;-79
2022/10/26 00:25:40;;;;;;;;;;;;;;;16.05;60.27;95488.84;4945696;28;20129;-78
2022/10/26 00:28:05;;;;;;;;;;;;;;;16.08;60.18;95488.19;4930672;28;20019;-78
2022/10/26 00:30:30;;;;;;;;;;;;;;;16.14;60.10;95479.94;4930042;28;20024;-77
2022/10/26 00:32:55;;;;;;;;;;;;;;;16.08;59.98;95490.09;4945557;28;20015;-78
2022/10/26 00:35:21;;;;;;;;;;;;;;;16.16;59.81;95481.16;4942790;28;20015;-77
2022/10/26 00:37:46;;;;;;;;;;;;;;;16.19;59.93;95480.53;4945378;29;20431;-79
2022/10/26 00:40:11;;;;;;;;;;;;;;;16.23;59.73;95477.97;4944637;28;20468;-78
2022/10/26 00:42:36;;;;;;;;;;;;;;;16.25;59.51;95476.50;4928729;28;20020;-78
2022/10/26 00:45:34;;;;;;;;;;;;;;;16.27;59.03;95484.22;4929875;28;20024;-78
2022/10/26 00:48:06;;;;;;;;;;;;;;;16.33;59.19;95475.66;4958977;28;20494;-78
2022/10/26 00:50:34;;;;;;;;;;;;;;;16.34;58.99;95482.56;4926714;28;20020;-78
2022/10/26 00:53:02;;;;;;;;;;;;;;;16.36;59.05;95482.22;4931462;29;20492;-78
2022/10/26 00:55:30;;;;;;;;;;;;;;;16.36;59.21;95484.91;4927927;28;20109;-77
2022/10/26 00:57:55;;;;;;;;;;;;;;;16.41;59.39;95479.34;4929347;28;20730;-79
2022/10/26 01:00:20;;;;;;;;;;;;;;;16.41;59.09;95484.72;4930257;28;20023;-78
2022/10/26 01:02:48;;;;;;;;;;;;;;;16.41;59.03;95483.94;4948683;28;20020;-78
2022/10/26 01:05:16;;;;;;;;;;;;;;;16.44;58.89;95484.06;4947098;28;20019;-78
2022/10/26 01:07:42;;;;;;;;;;;;;;;16.48;58.75;95484.16;4932073;28;20073;-77
2022/10/26 01:10:08;;;;;;;;;;;;;;;16.49;58.97;95481.16;4932250;29;20016;-77
2022/10/26 01:12:33;;;;;;;;;;;;;;;16.52;58.93;95491.22;4942877;28;20495;-78
2022/10/26 01:14:58;;;;;;;;;;;;;;;16.49;58.67;95485.75;4932900;28;20016;-78
2022/10/26 01:17:30;;;;;;;;;;;;;;;16.35;58.48;95476.09;4947165;28;20011;-79
2022/10/26 01:20:13;;;;;;;;;;;;;;;16.41;58.87;95471.28;4932801;28;20019;-78
2022/10/26 01:22:57;;;;;;;;;;;;;;;16.37;58.65;95478.44;4948212;28;20012;-78
2022/10/26 01:25:40;;;;;;;;;;;;;;;16.37;58.90;95489.94;4946991;28;20023;-79
2022/10/26 01:28:12;;;;;;;;;;;;;;;16.43;58.98;95489.72;4932027;28;20061;-77
2022/10/26 01:30:42;;;;;;;;;;;;;;;16.51;59.08;95494.25;4931878;28;20093;-78
2022/10/26 01:33:08;;;;;;;;;;;;;;;16.56;59.01;95502.88;4931606;28;20038;-77
2022/10/26 01:35:51;;;;;;;;;;;;;;;16.60;59.05;95501.09;4931745;28;20023;-78
2022/10/26 01:38:16;;;;;;;;;;;;;;;16.63;58.63;95497.75;4947390;28;20074;-78
2022/10/26 01:40:45;;;;;;;;;;;;;;;16.68;58.36;95495.94;4947604;28;20480;-78
2022/10/26 01:43:12;;;;;;;;;;;;;;;16.68;58.85;95490.56;4932728;28;20011;-77
2022/10/26 01:45:39;;;;;;;;;;;;;;;16.67;58.69;95489.78;4931094;28;20058;-78
2022/10/26 01:48:05;;;;;;;;;;;;;;;16.65;58.70;95473.22;4933192;28;20012;-79
2022/10/26 01:50:31;;;;;;;;;;;;;;;16.60;58.79;95489.56;4931764;28;20019;-78
2022/10/26 01:52:56;;;;;;;;;;;;;;;16.61;58.49;95494.59;4931974;29;20022;-78
2022/10/26 01:55:40;;;;;;;;;;;;;;;16.62;58.82;95498.06;4931965;29;20016;-77
2022/10/26 01:58:22;;;;;;;;;;;;;;;16.58;58.87;95484.53;4948088;28;20101;-78
2022/10/26 02:01:01;;;;;;;;;;;;;;;16.58;58.72;95486.41;4931240;28;20055;-78
2022/10/26 02:03:38;;;;;;;;;;;;;;;16.56;58.49;95502.88;4946273;28;20054;-77
2022/10/26 02:06:10;;;;;;;;;;;;;;;16.57;58.51;95504.44;4912387;28;20016;-78
2022/10/26 02:08:52;;;;;;;;;;;;;;;16.60;58.67;95490.34;4936707;28;20020;-77
2022/10/26 02:11:30;;;;;;;;;;;;;;;16.63;58.60;95486.19;4931387;28;20062;-78
2022/10/26 02:14:00;;;;;;;;;;;;;;;16.62;58.59;95506.91;4947134;28;20015;-77
2022/10/26 02:16:55;;;;;;;;;;;;;;;16.61;58.65;95510.72;4929603;28;20062;-79
2022/10/26 02:19:23;;;;;;;;;;;;;;;16.48;58.94;95495.72;4939303;28;20020;-77
2022/10/26 02:21:53;;;;;;;;;;;;;;;16.51;58.94;95496.94;4932592;28;20011;-78
2022/10/26 02:24:19;;;;;;;;;;;;;;;16.05;59.92;95506.84;4931881;28;20023;-77
2022/10/26 02:26:46;;;;;;;;;;;;;;;15.89;60.11;95512.03;4930460;29;20015;-76
2022/10/26 02:29:14;;;;;;;;;;;;;;;15.82;60.73;95509.09;4946759;28;20122;-78
2022/10/26 02:31:40;;;;;;;;;;;;;;;16.09;60.48;95515.81;4931863;28;20059;-77
2022/10/26 02:34:08;;;;;;;;;;;;;;;16.07;60.30;95513.47;4946155;28;20020;-77
2022/10/26 02:36:34;;;;;;;;;;;;;;;16.23;60.53;95496.75;4930906;29;20020;-78
2022/10/26 02:39:02;;;;;;;;;;;;;;;16.28;60.41;95515.34;4930748;28;20403;-77
2022/10/26 02:41:29;;;;;;;;;;;;;;;16.40;60.48;95507.31;4931681;29;20034;-78
2022/10/26 02:44:07;;;;;;;;;;;;;;;16.50;60.34;95514.16;4931145;28;20062;-77
2022/10/26 02:46:32;;;;;;;;;;;;;;;16.35;59.94;95510.19;4942090;28;20075;-78
2022/10/26 02:48:58;;;;;;;;;;;;;;;16.47;60.00;95496.00;4930196;28;20486;-78
2022/10/26 02:51:42;;;;;;;;;;;;;;;16.57;59.66;95487.53;4946974;28;20055;-77
2022/10/26 02:54:13;;;;;;;;;;;;;;;16.62;59.74;95482.72;4941072;29;20011;-76
2022/10/26 02:56:44;;;;;;;;;;;;;;;16.66;59.19;95474.78;4930108;28;20020;-77
2022/10/26 02:59:11;;;;;;;;;;;;;;;16.70;59.08;95472.22;4946023;28;20019;-78
2022/10/26 03:01:36;;;;;;;;;;;;;;;16.73;59.13;95467.00;4930486;28;20020;-77
2022/10/26 03:04:02;;;;;;;;;;;;;;;16.79;59.14;95481.78;4931490;28;20023;-78
2022/10/26 03:06:27;;;;;;;;;;;;;;;16.79;59.11;95481.00;4930526;28;20024;-77
2022/10/26 03:08:52;;;;;;;;;;;;;;;16.75;59.04;95477.41;4931119;28;20011;-75
2022/10/26 03:11:18;;;;;;;;;;;;;;;16.75;59.38;95455.94;4931976;28;20081;-77
2022/10/26 03:13:43;;;;;;;;;;;;;;;16.61;59.39;95442.78;4931352;28;21717;-77
2022/10/26 03:16:08;;;;;;;;;;;;;;;16.52;59.23;95444.78;4929833;28;20015;-78
2022/10/26 03:18:34;;;;;;;;;;;;;;;16.57;59.43;95444.56;4930503;28;20019;-78
2022/10/26 03:20:59;;;;;;;;;;;;;;;16.59;59.65;95442.34;4930214;28;20162;-77
2022/10/26 03:23:24;;;;;;;;;;;;;;;16.60;59.80;95441.22;4945003;28;20016;-77
2022/10/26 03:25:50;;;;;;;;;;;;;;;16.68;59.87;95444.91;4931301;28;20016;-77
2022/10/26 03:28:15;;;;;;;;;;;;;;;16.75;59.75;95443.28;4930127;28;20124;-77
2022/10/26 03:30:40;;;;;;;;;;;;;;;16.83;59.50;95452.34;4930652;28;20027;-77
2022/10/26 03:33:05;;;;;;;;;;;;;;;16.90;59.46;95457.94;4930041;28;20150;-77
2022/10/26 03:35:30;;;;;;;;;;;;;;;16.94;59.38;95450.78;4930728;28;20652;-77
2022/10/26 03:37:56;;;;;;;;;;;;;;;16.98;59.27;95443.59;4930394;28;20020;-78
2022/10/26 03:40:21;;;;;;;;;;;;;;;16.96;59.05;95445.84;4929739;28;20020;-78
2022/10/26 03:42:46;;;;;;;;;;;;;;;16.96;59.39;95448.53;4931038;28;20120;-78
2022/10/26 03:45:11;;;;;;;;;;;;;;;17.02;59.32;95452.56;4928835;28;20126;-77
2022/10/26 03:47:47;;;;;;;;;;;;;;;17.07;59.01;95454.25;4930181;28;20479;-77
2022/10/26 03:50:13;;;;;;;;;;;;;;;17.10;59.07;95458.94;4931008;28;20021;-78
2022/10/26 03:52:39;;;;;;;;;;;;;;;17.14;59.14;95470.56;4929668;28;20081;-77
2022/10/26 03:55:04;;;;;;;;;;;;;;;17.12;58.84;95464.75;4928548;28;20020;-78
2022/10/26 03:57:29;;;;;;;;;;;;;;;17.13;59.12;95456.34;4930103;28;20023;-78
2022/10/26 03:59:55;;;;;;;;;;;;;;;17.01;59.36;95464.44;4929383;28;20020;-76
2022/10/26 04:02:20;;;;;;;;;;;;;;;16.97;59.46;95468.91;4930840;28;20061;-77
2022/10/26 04:04:45;;;;;;;;;;;;;;;17.03;59.47;95462.19;4928543;28;20071;-77
2022/10/26 04:07:10;;;;;;;;;;;;;;;17.10;59.24;95470.47;4929480;28;20065;-78
2022/10/26 04:09:36;;;;;;;;;;;;;;;17.16;59.53;95471.03;4929101;29;20020;-77
2022/10/26 04:12:01;;;;;;;;;;;;;;;17.15;59.54;95464.88;4930896;28;20058;-78
2022/10/26 04:14:26;;;;;;;;;;;;;;;16.98;59.57;95475.84;4928971;28;20023;-78
2022/10/26 04:16:51;;;;;;;;;;;;;;;17.06;59.96;95472.28;4944412;29;20030;-78
2022/10/26 04:19:16;;;;;;;;;;;;;;;17.03;59.70;95478.31;4941225;28;20020;-78
2022/10/26 04:21:42;;;;;;;;;;;;;;;17.09;59.76;95476.97;4912068;29;20016;-76
2022/10/26 04:24:08;;;;;;;;;;;;;;;17.15;59.68;95472.94;4934580;29;20024;-78
2022/10/26 04:26:33;;;;;;;;;;;;;;;17.18;59.52;95479.53;4929374;29;20412;-77
2022/10/26 04:28:59;;;;;;;;;;;;;;;17.27;59.40;95476.72;4929488;28;20007;-74
2022/10/26 04:31:24;;;;;;;;;;;;;;;17.35;59.14;95478.50;4926338;28;20154;-73
2022/10/26 04:33:49;;;;;;;;;;;;;;;17.39;59.10;95474.00;4928749;28;20051;-72
2022/10/26 04:36:15;;;;;;;;;;;;;;;17.39;58.85;95482.88;4932212;28;20061;-73
2022/10/26 04:38:40;;;;;;;;;;;;;;;17.38;59.00;95484.00;4946589;28;20043;-72
2022/10/26 04:41:05;;;;;;;;;;;;;;;17.16;58.65;95487.16;4932841;29;20074;-73
2022/10/26 04:43:30;;;;;;;;;;;;;;;16.81;59.85;95492.19;4928963;28;20025;-73
2022/10/26 04:45:56;;;;;;;;;;;;;;;16.67;60.20;95508.59;4930795;28;20016;-70
2022/10/26 04:48:21;;;;;;;;;;;;;;;16.22;61.95;95527.38;4931562;28;20388;-66
2022/10/26 04:50:47;;;;;;;;;;;;;;;15.66;63.52;95541.09;4929664;28;20027;-70
2022/10/26 04:53:12;;;;;;;;;;;;;;;15.34;64.69;95555.91;4932240;29;20031;-71
2022/10/26 04:55:37;;;;;;;;;;;;;;;15.55;64.51;95558.63;4929811;28;20114;-71
2022/10/26 04:58:03;;;;;;;;;;;;;;;15.22;66.12;95570.00;4946701;29;20118;-72
2022/10/26 05:00:29;;;;;;;;;;;;;;;15.41;65.80;95572.28;4936949;28;21056;-73
2022/10/26 05:02:58;;;;;;;;;;;;;;;15.18;66.75;95600.44;4930501;28;20027;-68
2022/10/26 05:05:24;;;;;;;;;;;;;;;15.02;67.57;95608.22;4931157;29;20024;-70
2022/10/26 05:07:53;;;;;;;;;;;;;;;15.35;66.70;95616.44;4932206;29;20012;-70
2022/10/26 05:10:18;;;;;;;;;;;;;;;15.17;67.04;95610.38;4931386;28;20026;-69
2022/10/26 05:12:49;;;;;;;;;;;;;;;15.29;66.67;95623.88;4931118;28;20020;-70
2022/10/26 05:15:14;;;;;;;;;;;;;;;15.66;66.27;95615.38;4929504;28;20026;-69
2022/10/26 05:17:39;;;;;;;;;;;;;;;15.65;66.82;95613.81;4931965;28;20418;-68
2022/10/26 05:20:05;;;;;;;;;;;;;;;15.67;65.89;95608.91;4930064;28;20019;-70
2022/10/26 05:22:30;;;;;;;;;;;;;;;15.85;66.27;95613.06;4932159;28;20020;-70
2022/10/26 05:24:55;;;;;;;;;;;;;;;16.09;66.44;95604.38;4930609;28;20015;-70
2022/10/26 05:27:20;;;;;;;;;;;;;;;16.29;66.65;95605.47;4931622;28;20654;-70
2022/10/26 05:29:45;;;;;;;;;;;;;;;16.45;66.00;95605.66;4930468;28;20016;-71
2022/10/26 05:32:11;;;;;;;;;;;;;;;16.60;66.22;95610.41;4930455;28;20019;-70
2022/10/26 05:34:36;;;;;;;;;;;;;;;16.72;65.73;95623.91;4931703;29;20537;-70
2022/10/26 05:37:01;;;;;;;;;;;;;;;16.48;64.80;95624.59;4931372;28;20031;-70
2022/10/26 05:39:26;;;;;;;;;;;;;;;16.51;65.07;95626.59;4930458;28;20020;-70
2022/10/26 05:41:51;;;;;;;;;;;;;;;16.29;65.40;95640.38;4930814;28;20067;-72
2022/10/26 05:44:17;;;;;;;;;;;;;;;16.39;65.78;95639.97;4953244;28;20476;-74
2022/10/26 05:46:42;;;;;;;;;;;;;;;16.23;65.78;95647.06;4935256;29;20023;-73
2022/10/26 05:49:07;;;;;;;;;;;;;;;16.00;65.86;95646.56;4934777;28;20026;-71
2022/10/26 05:51:33;;;;;;;;;;;;;;;16.00;67.04;95651.94;4932264;29;20494;-72
2022/10/26 05:53:59;;;;;;;;;;;;;;;16.02;66.59;95641.66;4929531;28;20474;-72
2022/10/26 05:56:35;;;;;;;;;;;;;;;15.98;66.64;95652.28;4943790;28;20019;-70
2022/10/26 05:59:00;;;;;;;;;;;;;;;16.08;67.30;95645.75;4930852;28;20022;-70
2022/10/26 06:01:37;;;;;;;;;;;;;;;16.57;66.18;95657.50;4931586;29;20023;-71
2022/10/26 06:04:10;;;;;;;;;;;;;;;16.31;66.80;95664.97;4931098;29;20541;-68
2022/10/26 06:06:41;;;;;;;;;;;;;;;16.37;66.87;95656.41;4965507;28;20019;-67
2022/10/26 06:09:08;;;;;;;;;;;;;;;16.91;65.25;95654.88;4951714;29;20007;-73
2022/10/26 06:11:33;;;;;;;;;;;;;;;16.83;63.76;95662.66;4936050;28;20065;-69
2022/10/26 06:14:00;;;;;;;;;;;;;;;17.12;63.77;95663.66;4931562;29;20102;-70
2022/10/26 06:16:37;;;;;;;;;;;;;;;17.30;62.96;95667.75;4932068;29;20011;-69
2022/10/26 06:19:13;;;;;;;;;;;;;;;17.34;62.30;95660.56;4932178;29;20022;-73
2022/10/26 06:22:14;;;;;;;;;;;;;;;17.38;62.43;95664.16;4932103;28;20487;-70
2022/10/26 06:24:47;;;;;;;;;;;;;;;17.48;62.41;95654.88;4990578;28;20077;-72
2022/10/26 06:27:21;;;;;;;;;;;;;;;17.60;61.93;95662.94;4951724;28;20019;-75
2022/10/26 06:29:59;;;;;;;;;;;;;;;17.74;61.38;95678.00;4947232;28;20018;-72
2022/10/26 06:32:25;;;;;;;;;;;;;;;17.84;61.41;95669.47;4931456;28;20102;-73
2022/10/26 06:34:53;;;;;;;;;;;;;;;17.92;61.01;95682.06;4931715;28;20477;-69
2022/10/26 06:37:19;;;;;;;;;;;;;;;18.01;61.10;95669.22;4932369;28;20388;-73
2022/10/26 06:39:45;;;;;;;;;;;;;;;18.11;61.08;95666.09;4931760;29;20007;-73
2022/10/26 06:42:11;;;;;;;;;;;;;;;18.20;60.56;95663.28;4929593;29;20016;-72
2022/10/26 06:44:37;;;;;;;;;;;;;;;18.26;60.50;95669.22;4932452;29;20399;-73
2022/10/26 06:47:15;;;;;;;;;;;;;;;18.35;60.56;95673.34;4931386;28;20739;-72
2022/10/26 06:49:50;;;;;;;;;;;;;;;18.43;60.21;95666.28;4930888;29;20022;-72
2022/10/26 06:52:37;;;;;;;;;;;;;;;18.51;60.16;95669.94;4911400;29;20018;-70
2022/10/26 06:55:04;;;;;;;;;;;;;;;18.58;60.04;95675.50;4911384;29;20022;-70
2022/10/26 06:57:33;;;;;;;;;;;;;;;18.63;59.66;95670.69;4926443;28;20130;-71
2022/10/26 07:00:00;;;;;;;;;;;;;;;18.68;59.62;95667.78;4930507;28;20052;-70
2022/10/26 07:02:25;;;;;;;;;;;;;;;18.76;59.56;95671.44;4930228;29;20016;-70
2022/10/26 07:04:50;;;;;;;;;;;;;;;18.83;59.41;95674.31;4930354;28;20026;-70
2022/10/26 07:07:18;;;;;;;;;;;;;;;18.87;59.38;95667.13;4930771;28;20491;-71
2022/10/26 07:09:43;;;;;;;;;;;;;;;18.91;58.86;95669.94;4930871;29;20020;-70
2022/10/26 07:12:08;;;;;;;;;;;;;;;18.96;58.94;95667.75;4930257;29;20093;-70
2022/10/26 07:14:33;;;;;;;;;;;;;;;19.03;58.58;95667.16;4930099;29;20019;-70
2022/10/26 07:16:59;;;;;;;;;;;;;;;19.08;58.60;95664.22;4930506;28;20015;-73
2022/10/26 07:19:24;;;;;;;;;;;;;;;19.09;58.69;95679.28;4931051;29;20012;-71
2022/10/26 07:21:50;;;;;;;;;;;;;;;19.16;58.62;95676.00;4930540;28;20047;-70
2022/10/26 07:24:15;;;;;;;;;;;;;;;19.15;58.69;95680.59;4930696;29;20537;-71
2022/10/26 07:26:40;;;;;;;;;;;;;;;19.20;58.61;95688.44;4928802;28;20016;-72
2022/10/26 07:29:05;;;;;;;;;;;;;;;19.23;58.19;95679.63;4930582;28;20022;-71
2022/10/26 07:31:31;;;;;;;;;;;;;;;19.22;58.30;95678.09;4930584;28;20019;-73
2022/10/26 07:33:56;;;;;;;;;;;;;;;19.23;58.09;95676.94;4930803;29;20012;-71
2022/10/26 07:36:22;;;;;;;;;;;;;;;19.25;58.01;95667.75;4929974;28;20012;-71
2022/10/26 07:38:50;;;;;;;;;;;;;;;19.22;58.20;95675.38;4929653;29;20019;-71
2022/10/26 07:41:15;;;;;;;;;;;;;;;19.22;58.03;95670.00;4963187;22;21021;-67
2022/10/26 07:43:40;;;;;;;;;;;;;;;19.30;58.09;95672.88;5065322;28;20018;-66
2022/10/26 07:46:06;;;;;;;;;;;;;;;19.26;57.27;95663.91;5049930;28;20016;-67
2022/10/26 07:48:31;;;;;;;;;;;;;;;19.41;57.54;95660.44;5050055;28;20098;-67
2022/10/26 07:50:56;;;;;;;;;;;;;;;19.44;57.15;95654.34;5068185;28;20477;-67
2022/10/26 07:53:21;;;;;;;;;;;;;;;19.58;57.05;95664.72;5070126;28;20005;-67
2022/10/26 07:55:53;;;;;;;;;;;;;;;19.69;56.79;95666.56;5070057;28;20112;-67
2022/10/26 07:58:22;;;;;;;;;;;;;;;19.77;56.44;95655.94;5068253;28;20017;-67
2022/10/26 08:00:48;;;;;;;;;;;;;;;19.25;56.04;95570.66;5069962;28;20009;-67
2022/10/26 08:03:13;;;;;;;;;;;;;;;19.94;56.08;95666.34;5070005;28;20024;-68
2022/10/26 08:05:38;;;;;;;;;;;;;;;19.97;55.62;95655.66;5069790;28;20017;-67
2022/10/26 08:08:04;;;;;;;;;;;;;;;19.97;55.45;95661.06;5069475;28;20130;-67
2022/10/26 08:10:29;;;;;;;;;;;;;;;19.76;54.81;95662.44;5073865;28;20005;-67
2022/10/26 08:12:55;;;;;;;;;;;;;;;19.95;55.42;95670.63;5060409;28;20068;-67
2022/10/26 08:15:20;;;;;;;;;;;;;;;20.06;55.33;95668.94;5053667;28;20001;-67
2022/10/26 08:17:45;;;;;;;;;;;;;;;20.22;54.90;95664.31;5059879;28;20074;-67
2022/10/26 08:20:10;;;;;;;;;;;;;;;20.45;54.47;95669.81;5062361;28;20042;-67
2022/10/26 08:22:36;;;;;;;;;;;;;;;20.62;54.10;95675.97;5073812;28;20005;-67
2022/10/26 08:25:01;;;;;;;;;;;;;;;20.71;53.57;95677.31;5073172;28;20967;-67
2022/10/26 08:27:26;;;;;;;;;;;;;;;20.81;53.02;95675.19;5071799;28;20017;-67
2022/10/26 08:29:51;;;;;;;;;;;;;;;20.93;53.04;95664.22;5062033;28;20018;-67
2022/10/26 08:32:17;;;;;;;;;;;;;;;21.09;52.32;95664.13;5053589;28;20019;-67
2022/10/26 08:34:42;;;;;;;;;;;;;;;21.27;52.32;95673.34;5068669;28;20013;-67
2022/10/26 08:37:07;;;;;;;;;;;;;;;21.41;51.88;95662.81;5068524;28;20018;-68
2022/10/26 08:39:32;;;;;;;;;;;;;;;21.59;51.54;95670.44;5063184;28;20017;-67
2022/10/26 08:42:04;;;;;;;;;;;;;;;21.77;50.67;95671.53;5086105;28;20029;-67
2022/10/26 08:44:34;;;;;;;;;;;;;;;22.02;50.56;95661.84;5053307;28;20020;-68
2022/10/26 08:47:05;;;;;;;;;;;;;;;22.22;49.79;95670.69;5052740;28;20497;-67
2022/10/26 08:49:40;;;;;;;;;;;;;;;22.43;49.24;95672.13;5053279;28;20010;-67
2022/10/26 08:52:06;;;;;;;;;;;;;;;22.62;48.82;95677.41;5069172;28;20027;-69
2022/10/26 08:54:35;;;;;;;;;;;;;;;22.94;48.62;95677.84;5073190;28;20108;-68
2022/10/26 08:57:03;;;;;;;;;;;;;;;23.24;48.20;95685.16;5071429;28;20009;-69
2022/10/26 08:59:37;;;;;;;;;;;;;;;23.49;47.41;95677.22;5072110;28;20377;-69
2022/10/26 09:02:02;;;;;;;;;;;;;;;23.80;46.07;95676.78;5072906;28;20008;-69
2022/10/26 09:04:28;;;;;;;;;;;;;;;24.13;45.19;95677.78;5072991;28;20446;-69
2022/10/26 09:06:56;;;;;;;;;;;;;;;24.37;43.62;95679.91;5072726;28;20505;-69
2022/10/26 09:09:27;;;;;;;;;;;;;;;24.64;44.00;95680.44;5072003;28;20017;-69
2022/10/26 09:12:18;;;;;;;;;;;;;;;24.75;43.43;95683.19;5072636;28;20014;-69
2022/10/26 09:14:46;;;;;;;;;;;;;;;24.49;43.09;95675.31;5052650;28;20014;-69
2022/10/26 09:17:17;;;;;;;;;;;;;;;24.73;43.56;95679.31;5052199;28;20067;-71
2022/10/26 09:19:48;;;;;;;;;;;;;;;24.84;43.14;95669.25;5051882;28;20013;-71
2022/10/26 09:22:16;;;;;;;;;;;;;;;24.96;43.02;95679.00;5068662;28;20061;-70
2022/10/26 09:24:48;;;;;;;;;;;;;;;25.02;42.92;95680.97;5072503;28;20021;-70
2022/10/26 09:27:25;;;;;;;;;;;;;;;25.20;42.86;95689.22;5087031;28;20107;-69
2022/10/26 09:29:52;;;;;;;;;;;;;;;25.47;42.48;95697.84;5070544;28;20017;-70
2022/10/26 09:32:18;;;;;;;;;;;;;;;25.71;41.81;95690.88;5072855;28;20368;-69
2022/10/26 09:34:56;;;;;;;;;;;;;;;25.96;41.46;95679.25;5059386;28;20009;-70
2022/10/26 09:37:31;;;;;;;;;;;;;;;26.05;39.06;95685.06;5072839;28;20493;-67
2022/10/26 09:40:02;;;;;;;;;;;;;;;24.28;39.94;95692.25;5072790;28;20015;-69
2022/10/26 09:42:34;;;;;;;;;;;;;;;22.93;42.83;95711.56;5067242;28;20043;-67
2022/10/26 09:45:04;;;;;;;;;;;;;;;22.82;42.57;95714.06;5069632;28;21364;-67
2022/10/26 09:47:32;;;;;;;;;;;;;;;21.89;44.91;95717.38;5072540;28;20013;-67
2022/10/26 09:50:00;;;;;;;;;;;;;;;22.43;43.93;95723.63;5088366;28;20075;-67
2022/10/26 09:52:26;;;;;;;;;;;;;;;23.35;42.90;95718.59;5088460;28;20362;-66
2022/10/26 09:54:51;;;;;;;;;;;;;;;23.63;42.16;95722.75;5087753;28;20020;-66
2022/10/26 09:57:18;;;;;;;;;;;;;;;24.72;40.64;95732.16;5068937;28;20416;-66
2022/10/26 09:59:46;;;;;;;;;;;;;;;25.15;38.77;95733.16;5063287;28;20028;-66
2022/10/26 10:02:30;;;;;;;;;;;;;;;25.02;38.88;95734.63;5051996;28;20016;-66
2022/10/26 10:04:55;;;;;;;;;;;;;;;25.38;39.11;95735.56;5050409;28;20022;-66
2022/10/26 10:07:21;;;;;;;;;;;;;;;24.88;39.08;95733.41;5055325;28;20009;-66
2022/10/26 10:10:04;;;;;;;;;;;;;;;24.87;39.08;95737.28;5087600;28;20509;-66
2022/10/26 10:12:29;;;;;;;;;;;;;;;25.04;38.49;95737.75;5069653;28;20013;-67
2022/10/26 10:14:58;;;;;;;;;;;;;;;25.03;38.72;95738.91;5071600;28;20155;-68
2022/10/26 10:17:24;;;;;;;;;;;;;;;25.12;38.66;95739.38;5070838;28;20014;-67
2022/10/26 10:19:50;;;;;;;;;;;;;;;25.58;38.45;95734.03;5071128;28;20005;-68
2022/10/26 10:22:15;;;;;;;;;;;;;;;25.84;38.26;95745.78;5071989;28;20028;-67
2022/10/26 10:24:41;;;;;;;;;;;;;;;26.17;37.85;95742.72;5072006;28;20122;-67
2022/10/26 10:27:15;;;;;;;;;;;;;;;26.02;37.25;95751.28;5066350;28;20017;-69
2022/10/26 10:29:45;;;;;;;;;;;;;;;26.04;36.60;95744.25;5070064;28;20016;-67
2022/10/26 10:32:14;;;;;;;;;;;;;;;25.07;37.49;95762.28;5071567;28;20027;-67
2022/10/26 10:34:40;;;;;;;;;;;;;;;24.34;39.50;95754.03;5071884;28;20095;-68
2022/10/26 10:37:05;;;;;;;;;;;;;;;23.34;40.35;95763.97;5069920;28;20108;-67
2022/10/26 10:39:35;;;;;;;;;;;;;;;24.64;39.09;95763.97;5070148;28;20520;-67
2022/10/26 10:42:01;;;;;;;;;;;;;;;23.22;40.61;95761.50;5084085;28;20021;-67
2022/10/26 10:44:28;;;;;;;;;;;;;;;23.13;41.89;95760.22;5070502;28;20087;-66
2022/10/26 10:47:01;;;;;;;;;;;;;;;23.96;40.42;95762.69;5068761;28;20112;-66
2022/10/26 10:49:27;;;;;;;;;;;;;;;23.47;41.47;95748.19;5071101;28;20424;-65
2022/10/26 10:51:54;;;;;;;;;;;;;;;23.71;40.43;95763.22;5086452;28;20052;-66
2022/10/26 10:54:30;;;;;;;;;;;;;;;22.25;43.65;95766.72;5070777;28;20378;-65
2022/10/26 10:57:13;;;;;;;;;;;;;;;22.33;43.52;95768.41;5085354;28;20028;-66
2022/10/26 10:59:43;;;;;;;;;;;;;;;22.83;42.46;95769.91;5069620;28;20508;-66
2022/10/26 11:02:23;;;;;;;;;;;;;;;22.03;44.63;95779.13;5069314;28;20480;-65
2022/10/26 11:05:03;;;;;;;;;;;;;;;22.55;43.52;95774.94;5068992;28;20017;-65
2022/10/26 11:07:31;;;;;;;;;;;;;;;22.61;43.82;95776.16;5069801;28;20013;-67
2022/10/26 11:09:59;;;;;;;;;;;;;;;22.80;43.24;95775.28;5070634;28;20097;-67
2022/10/26 11:12:33;;;;;;;;;;;;;;;23.26;42.68;95773.19;5086254;28;20023;-67
2022/10/26 11:15:07;;;;;;;;;;;;;;;23.24;42.53;95767.34;5084393;28;20017;-67
2022/10/26 11:17:36;;;;;;;;;;;;;;;23.47;41.97;95775.34;5053399;28;20017;-68
2022/10/26 11:20:04;;;;;;;;;;;;;;;22.77;43.66;95782.19;5050392;28;20049;-67
2022/10/26 11:22:41;;;;;;;;;;;;;;;22.79;43.59;95777.22;5065747;28;20083;-64
2022/10/26 11:25:06;;;;;;;;;;;;;;;22.14;45.20;95774.69;5050048;28;20017;-66
2022/10/26 11:27:37;;;;;;;;;;;;;;;23.53;42.85;95773.06;5080297;28;20066;-66
2022/10/26 11:30:12;;;;;;;;;;;;;;;23.52;42.17;95766.88;5053888;28;20017;-66
2022/10/26 11:33:00;;;;;;;;;;;;;;;23.93;41.74;95775.06;5050480;28;20036;-65
2022/10/26 11:35:35;;;;;;;;;;;;;;;22.61;43.97;95776.16;5050239;28;20040;-65
2022/10/26 11:38:07;;;;;;;;;;;;;;;23.52;42.67;95785.09;5050526;28;20009;-66
2022/10/26 11:40:37;;;;;;;;;;;;;;;22.46;44.72;95783.31;5050200;28;20063;-66
2022/10/26 11:43:11;;;;;;;;;;;;;;;22.41;45.39;95780.91;5047825;28;20049;-65
2022/10/26 11:45:42;;;;;;;;;;;;;;;22.33;45.62;95795.50;5069908;28;20021;-66
2022/10/26 11:48:13;;;;;;;;;;;;;;;22.68;45.09;95797.97;5070671;28;20056;-66
2022/10/26 11:50:51;;;;;;;;;;;;;;;21.87;46.33;95800.13;5069464;28;20017;-65
2022/10/26 11:53:38;;;;;;;;;;;;;;;21.87;47.13;95800.13;5070648;28;20151;-66
2022/10/26 11:56:05;;;;;;;;;;;;;;;22.29;45.96;95792.75;5070103;28;20016;-65
2022/10/26 11:58:31;;;;;;;;;;;;;;;21.22;48.12;95814.34;5083350;28;20473;-65
2022/10/26 12:01:01;;;;;;;;;;;;;;;21.53;46.92;95808.00;5050045;28;20064;-65
2022/10/26 12:03:31;;;;;;;;;;;;;;;21.50;48.00;95809.53;5062723;28;20013;-65
2022/10/26 12:05:56;;;;;;;;;;;;;;;21.10;49.00;95820.66;5068407;28;20485;-65
2022/10/26 12:08:34;;;;;;;;;;;;;;;21.58;48.14;95820.47;5085411;28;20377;-66
2022/10/26 12:11:15;;;;;;;;;;;;;;;21.79;47.55;95823.59;5070160;28;20009;-65
2022/10/26 12:13:46;;;;;;;;;;;;;;;20.99;49.23;95822.38;5082755;28;20043;-65
2022/10/26 12:16:39;;;;;;;;;;;;;;;21.04;49.58;95822.09;5069740;28;20092;-65
2022/10/26 12:19:08;;;;;;;;;;;;;;;21.25;48.87;95827.94;5070021;28;20009;-66
2022/10/26 12:21:33;;;;;;;;;;;;;;;21.61;49.05;95828.69;5059930;28;20025;-67
2022/10/26 12:24:18;;;;;;;;;;;;;;;21.48;48.93;95832.66;5048716;28;20018;-65
2022/10/26 12:26:49;;;;;;;;;;;;;;;21.62;48.30;95841.06;5049366;28;20079;-64
2022/10/26 12:29:25;;;;;;;;;;;;;;;22.10;47.12;95825.28;5054432;28;20067;-65
2022/10/26 12:31:50;;;;;;;;;;;;;;;21.61;48.21;95836.81;5067646;28;20389;-64
2022/10/26 12:34:23;;;;;;;;;;;;;;;21.89;47.13;95841.94;5069795;28;20013;-64
2022/10/26 12:37:08;;;;;;;;;;;;;;;21.78;47.70;95838.25;5069370;28;20009;-65
2022/10/26 12:39:41;;;;;;;;;;;;;;;21.69;48.34;95846.59;5067335;28;20501;-65
2022/10/26 12:42:25;;;;;;;;;;;;;;;21.68;47.85;95845.03;5064324;28;20032;-67
2022/10/26 12:44:51;;;;;;;;;;;;;;;22.90;45.54;95839.78;5048472;28;20028;-64
2022/10/26 12:47:31;;;;;;;;;;;;;;;22.11;47.15;95847.78;5050196;28;20013;-63
2022/10/26 12:50:00;;;;;;;;;;;;;;;22.45;46.31;95844.09;5075000;28;20108;-64
2022/10/26 12:52:31;;;;;;;;;;;;;;;22.72;45.96;95842.19;5070136;28;20020;-65
2022/10/26 12:55:03;;;;;;;;;;;;;;;22.48;46.12;95845.31;5086743;28;20019;-64
2022/10/26 12:57:51;;;;;;;;;;;;;;;23.48;43.86;95850.22;5082815;28;20021;-64